sensor_id;sensor_type;location;lat;lon;timestamp;P1;durP1;ratioP1;P2;durP2;ratioP2
73980;SDS011;62348;51.412;5.436;2024-03-08T00:01:14;14.77;;;7.13;;
73980;SDS011;62348;51.412;5.436;2024-03-08T00:03:41;16.33;;;9.77;;
73980;SDS011;62348;51.412;5.436;2024-03-08T00:06:07;19.35;;;8.57;;
73980;SDS011;62348;51.412;5.436;2024-03-08T00:08:32;13.10;;;8.57;;
73980;SDS011;62348;51.412;5.436;2024-03-08T00:10:57;14.55;;;7.75;;
73980;SDS011;62348;51.412;5.436;2024-03-08T00:13:23;16.38;;;9.18;;
73980;SDS011;62348;51.412;5.436;2024-03-08T00:15:50;16.63;;;8.75;;
73980;SDS011;62348;51.412;5.436;2024-03-08T00:18:15;22.63;;;8.00;;
73980;SDS011;62348;51.412;5.436;2024-03-08T00:20:41;13.55;;;8.05;;
73980;SDS011;62348;51.412;5.436;2024-03-08T00:23:07;14.85;;;7.85;;
73980;SDS011;62348;51.412;5.436;2024-03-08T00:25:32;13.57;;;7.05;;
73980;SDS011;62348;51.412;5.436;2024-03-08T00:27:59;25.25;;;7.95;;
73980;SDS011;62348;51.412;5.436;2024-03-08T00:30:25;23.00;;;7.95;;
73980;SDS011;62348;51.412;5.436;2024-03-08T00:32:50;13.75;;;8.50;;
73980;SDS011;62348;51.412;5.436;2024-03-08T00:35:16;15.95;;;7.13;;
73980;SDS011;62348;51.412;5.436;2024-03-08T00:37:41;16.02;;;9.13;;
73980;SDS011;62348;51.412;5.436;2024-03-08T00:40:07;17.27;;;8.52;;
73980;SDS011;62348;51.412;5.436;2024-03-08T00:42:34;15.45;;;8.02;;
73980;SDS011;62348;51.412;5.436;2024-03-08T00:45:00;13.45;;;8.40;;
73980;SDS011;62348;51.412;5.436;2024-03-08T00:47:26;16.60;;;10.05;;
73980;SDS011;62348;51.412;5.436;2024-03-08T00:49:52;15.18;;;7.85;;
73980;SDS011;62348;51.412;5.436;2024-03-08T00:52:18;14.43;;;7.38;;
73980;SDS011;62348;51.412;5.436;2024-03-08T00:54:44;15.40;;;8.05;;
73980;SDS011;62348;51.412;5.436;2024-03-08T00:57:10;12.98;;;6.93;;
73980;SDS011;62348;51.412;5.436;2024-03-08T00:59:37;14.02;;;7.97;;
73980;SDS011;62348;51.412;5.436;2024-03-08T01:02:03;14.77;;;7.97;;
73980;SDS011;62348;51.412;5.436;2024-03-08T01:04:28;11.93;;;7.45;;
73980;SDS011;62348;51.412;5.436;2024-03-08T01:06:54;15.27;;;7.95;;
73980;SDS011;62348;51.412;5.436;2024-03-08T01:09:21;17.27;;;7.13;;
73980;SDS011;62348;51.412;5.436;2024-03-08T01:11:47;14.95;;;7.68;;
73980;SDS011;62348;51.412;5.436;2024-03-08T01:14:13;14.38;;;8.85;;
73980;SDS011;62348;51.412;5.436;2024-03-08T01:16:38;21.02;;;8.93;;
73980;SDS011;62348;51.412;5.436;2024-03-08T01:19:03;13.23;;;7.68;;
73980;SDS011;62348;51.412;5.436;2024-03-08T01:21:29;11.95;;;8.18;;
73980;SDS011;62348;51.412;5.436;2024-03-08T01:23:54;15.73;;;6.90;;
73980;SDS011;62348;51.412;5.436;2024-03-08T01:26:20;17.63;;;8.45;;
73980;SDS011;62348;51.412;5.436;2024-03-08T01:28:45;11.50;;;5.95;;
73980;SDS011;62348;51.412;5.436;2024-03-08T01:31:10;13.13;;;7.28;;
73980;SDS011;62348;51.412;5.436;2024-03-08T01:33:37;11.48;;;5.70;;
73980;SDS011;62348;51.412;5.436;2024-03-08T01:36:02;15.65;;;6.20;;
73980;SDS011;62348;51.412;5.436;2024-03-08T01:38:28;10.07;;;6.55;;
73980;SDS011;62348;51.412;5.436;2024-03-08T01:40:53;14.35;;;7.45;;
73980;SDS011;62348;51.412;5.436;2024-03-08T01:43:25;16.67;;;7.95;;
73980;SDS011;62348;51.412;5.436;2024-03-08T01:45:53;13.30;;;8.27;;
73980;SDS011;62348;51.412;5.436;2024-03-08T01:48:20;13.30;;;6.55;;
73980;SDS011;62348;51.412;5.436;2024-03-08T01:50:49;13.98;;;8.32;;
73980;SDS011;62348;51.412;5.436;2024-03-08T01:53:15;10.40;;;5.20;;
73980;SDS011;62348;51.412;5.436;2024-03-08T01:55:42;15.07;;;7.80;;
73980;SDS011;62348;51.412;5.436;2024-03-08T01:58:11;16.95;;;7.18;;
73980;SDS011;62348;51.412;5.436;2024-03-08T02:00:37;12.90;;;6.57;;
73980;SDS011;62348;51.412;5.436;2024-03-08T02:03:05;12.48;;;6.32;;
73980;SDS011;62348;51.412;5.436;2024-03-08T02:05:31;9.40;;;6.32;;
73980;SDS011;62348;51.412;5.436;2024-03-08T02:07:57;10.77;;;5.88;;
73980;SDS011;62348;51.412;5.436;2024-03-08T02:10:22;11.85;;;6.32;;
73980;SDS011;62348;51.412;5.436;2024-03-08T02:12:48;12.38;;;6.03;;
73980;SDS011;62348;51.412;5.436;2024-03-08T02:15:14;11.95;;;7.25;;
73980;SDS011;62348;51.412;5.436;2024-03-08T02:17:40;16.48;;;7.13;;
73980;SDS011;62348;51.412;5.436;2024-03-08T02:20:05;10.40;;;6.90;;
73980;SDS011;62348;51.412;5.436;2024-03-08T02:22:33;12.80;;;6.70;;
73980;SDS011;62348;51.412;5.436;2024-03-08T02:24:59;9.63;;;6.18;;
73980;SDS011;62348;51.412;5.436;2024-03-08T02:27:28;15.63;;;7.43;;
73980;SDS011;62348;51.412;5.436;2024-03-08T02:29:57;14.05;;;7.65;;
73980;SDS011;62348;51.412;5.436;2024-03-08T02:32:25;11.23;;;6.93;;
73980;SDS011;62348;51.412;5.436;2024-03-08T02:34:51;16.33;;;7.95;;
73980;SDS011;62348;51.412;5.436;2024-03-08T02:37:20;11.63;;;6.38;;
73980;SDS011;62348;51.412;5.436;2024-03-08T02:39:46;14.57;;;6.10;;
73980;SDS011;62348;51.412;5.436;2024-03-08T02:42:11;11.80;;;6.57;;
73980;SDS011;62348;51.412;5.436;2024-03-08T02:44:38;11.18;;;7.30;;
73980;SDS011;62348;51.412;5.436;2024-03-08T02:47:09;11.13;;;5.43;;
73980;SDS011;62348;51.412;5.436;2024-03-08T02:49:35;12.50;;;7.18;;
73980;SDS011;62348;51.412;5.436;2024-03-08T02:52:02;12.63;;;6.80;;
73980;SDS011;62348;51.412;5.436;2024-03-08T02:54:28;11.43;;;6.72;;
73980;SDS011;62348;51.412;5.436;2024-03-08T02:56:54;13.63;;;6.47;;
73980;SDS011;62348;51.412;5.436;2024-03-08T02:59:19;10.02;;;6.15;;
73980;SDS011;62348;51.412;5.436;2024-03-08T03:01:45;12.73;;;6.18;;
73980;SDS011;62348;51.412;5.436;2024-03-08T03:04:10;14.80;;;6.93;;
73980;SDS011;62348;51.412;5.436;2024-03-08T03:06:36;13.07;;;7.78;;
73980;SDS011;62348;51.412;5.436;2024-03-08T03:09:01;11.40;;;7.47;;
73980;SDS011;62348;51.412;5.436;2024-03-08T03:11:27;16.48;;;6.20;;
73980;SDS011;62348;51.412;5.436;2024-03-08T03:13:52;9.02;;;7.18;;
73980;SDS011;62348;51.412;5.436;2024-03-08T03:16:21;8.98;;;5.47;;
73980;SDS011;62348;51.412;5.436;2024-03-08T03:18:47;11.63;;;6.80;;
73980;SDS011;62348;51.412;5.436;2024-03-08T03:21:12;8.45;;;6.28;;
73980;SDS011;62348;51.412;5.436;2024-03-08T03:23:41;12.30;;;7.10;;
73980;SDS011;62348;51.412;5.436;2024-03-08T03:26:10;14.15;;;6.85;;
73980;SDS011;62348;51.412;5.436;2024-03-08T03:28:38;13.07;;;7.28;;
73980;SDS011;62348;51.412;5.436;2024-03-08T03:31:07;11.80;;;6.00;;
73980;SDS011;62348;51.412;5.436;2024-03-08T03:33:35;20.67;;;7.22;;
73980;SDS011;62348;51.412;5.436;2024-03-08T03:36:02;12.88;;;6.88;;
73980;SDS011;62348;51.412;5.436;2024-03-08T03:38:28;10.68;;;6.00;;
73980;SDS011;62348;51.412;5.436;2024-03-08T03:40:54;10.70;;;6.40;;
73980;SDS011;62348;51.412;5.436;2024-03-08T03:43:22;8.45;;;5.78;;
73980;SDS011;62348;51.412;5.436;2024-03-08T03:45:48;12.77;;;8.05;;
73980;SDS011;62348;51.412;5.436;2024-03-08T03:48:14;11.68;;;6.45;;
73980;SDS011;62348;51.412;5.436;2024-03-08T03:50:40;13.52;;;6.72;;
73980;SDS011;62348;51.412;5.436;2024-03-08T03:53:05;12.52;;;6.60;;
73980;SDS011;62348;51.412;5.436;2024-03-08T03:55:33;9.90;;;5.95;;
73980;SDS011;62348;51.412;5.436;2024-03-08T03:57:59;9.98;;;6.60;;
73980;SDS011;62348;51.412;5.436;2024-03-08T04:00:26;10.90;;;7.72;;
73980;SDS011;62348;51.412;5.436;2024-03-08T04:02:52;12.43;;;6.85;;
73980;SDS011;62348;51.412;5.436;2024-03-08T04:05:17;12.55;;;6.30;;
73980;SDS011;62348;51.412;5.436;2024-03-08T04:07:43;18.88;;;7.25;;
73980;SDS011;62348;51.412;5.436;2024-03-08T04:10:10;10.75;;;6.07;;
73980;SDS011;62348;51.412;5.436;2024-03-08T04:12:36;12.18;;;6.75;;
73980;SDS011;62348;51.412;5.436;2024-03-08T04:15:02;12.13;;;6.47;;
73980;SDS011;62348;51.412;5.436;2024-03-08T04:17:28;11.90;;;7.07;;
73980;SDS011;62348;51.412;5.436;2024-03-08T04:19:54;10.20;;;5.70;;
73980;SDS011;62348;51.412;5.436;2024-03-08T04:22:19;12.40;;;6.15;;
73980;SDS011;62348;51.412;5.436;2024-03-08T04:24:45;12.93;;;7.28;;
73980;SDS011;62348;51.412;5.436;2024-03-08T04:27:11;20.63;;;6.57;;
73980;SDS011;62348;51.412;5.436;2024-03-08T04:29:36;8.73;;;4.85;;
73980;SDS011;62348;51.412;5.436;2024-03-08T04:32:03;13.40;;;7.13;;
73980;SDS011;62348;51.412;5.436;2024-03-08T04:34:29;11.93;;;6.45;;
73980;SDS011;62348;51.412;5.436;2024-03-08T04:36:58;10.52;;;6.15;;
73980;SDS011;62348;51.412;5.436;2024-03-08T04:39:24;9.57;;;6.35;;
73980;SDS011;62348;51.412;5.436;2024-03-08T04:41:53;9.60;;;5.95;;
73980;SDS011;62348;51.412;5.436;2024-03-08T04:44:19;17.35;;;6.25;;
73980;SDS011;62348;51.412;5.436;2024-03-08T04:46:45;15.27;;;6.93;;
73980;SDS011;62348;51.412;5.436;2024-03-08T04:49:11;11.98;;;6.35;;
73980;SDS011;62348;51.412;5.436;2024-03-08T04:51:38;12.15;;;6.05;;
73980;SDS011;62348;51.412;5.436;2024-03-08T04:54:03;8.50;;;5.82;;
73980;SDS011;62348;51.412;5.436;2024-03-08T04:56:30;10.32;;;6.03;;
73980;SDS011;62348;51.412;5.436;2024-03-08T04:58:55;14.05;;;6.60;;
73980;SDS011;62348;51.412;5.436;2024-03-08T05:01:21;15.00;;;6.55;;
73980;SDS011;62348;51.412;5.436;2024-03-08T05:03:46;10.50;;;5.53;;
73980;SDS011;62348;51.412;5.436;2024-03-08T05:06:15;10.80;;;6.22;;
73980;SDS011;62348;51.412;5.436;2024-03-08T05:08:43;12.05;;;5.95;;
73980;SDS011;62348;51.412;5.436;2024-03-08T05:11:08;15.45;;;6.00;;
73980;SDS011;62348;51.412;5.436;2024-03-08T05:13:34;11.43;;;7.97;;
73980;SDS011;62348;51.412;5.436;2024-03-08T05:16:00;13.50;;;6.53;;
73980;SDS011;62348;51.412;5.436;2024-03-08T05:18:25;12.82;;;5.95;;
73980;SDS011;62348;51.412;5.436;2024-03-08T05:20:53;12.93;;;6.45;;
73980;SDS011;62348;51.412;5.436;2024-03-08T05:23:18;11.50;;;5.22;;
73980;SDS011;62348;51.412;5.436;2024-03-08T05:25:44;11.10;;;6.50;;
73980;SDS011;62348;51.412;5.436;2024-03-08T05:28:12;12.05;;;6.10;;
73980;SDS011;62348;51.412;5.436;2024-03-08T05:30:38;13.02;;;6.10;;
73980;SDS011;62348;51.412;5.436;2024-03-08T05:33:03;11.52;;;5.90;;
73980;SDS011;62348;51.412;5.436;2024-03-08T05:35:29;10.63;;;7.32;;
73980;SDS011;62348;51.412;5.436;2024-03-08T05:37:54;12.23;;;5.82;;
73980;SDS011;62348;51.412;5.436;2024-03-08T05:40:20;12.30;;;6.30;;
73980;SDS011;62348;51.412;5.436;2024-03-08T05:42:45;15.30;;;7.45;;
73980;SDS011;62348;51.412;5.436;2024-03-08T05:45:11;30.20;;;7.60;;
73980;SDS011;62348;51.412;5.436;2024-03-08T05:47:38;10.85;;;5.20;;
73980;SDS011;62348;51.412;5.436;2024-03-08T05:50:04;16.38;;;8.30;;
73980;SDS011;62348;51.412;5.436;2024-03-08T05:52:32;17.05;;;7.57;;
73980;SDS011;62348;51.412;5.436;2024-03-08T05:54:58;9.80;;;6.20;;
73980;SDS011;62348;51.412;5.436;2024-03-08T05:57:23;12.18;;;5.78;;
73980;SDS011;62348;51.412;5.436;2024-03-08T05:59:49;13.75;;;7.10;;
73980;SDS011;62348;51.412;5.436;2024-03-08T06:02:14;12.00;;;6.15;;
73980;SDS011;62348;51.412;5.436;2024-03-08T06:04:44;13.52;;;6.63;;
73980;SDS011;62348;51.412;5.436;2024-03-08T06:07:12;20.27;;;7.47;;
73980;SDS011;62348;51.412;5.436;2024-03-08T06:09:38;10.63;;;6.43;;
73980;SDS011;62348;51.412;5.436;2024-03-08T06:12:03;9.93;;;5.43;;
73980;SDS011;62348;51.412;5.436;2024-03-08T06:14:31;15.73;;;8.00;;
73980;SDS011;62348;51.412;5.436;2024-03-08T06:16:57;19.25;;;7.07;;
73980;SDS011;62348;51.412;5.436;2024-03-08T06:19:22;10.27;;;7.43;;
73980;SDS011;62348;51.412;5.436;2024-03-08T06:21:48;10.27;;;6.97;;
73980;SDS011;62348;51.412;5.436;2024-03-08T06:24:13;9.10;;;6.10;;
73980;SDS011;62348;51.412;5.436;2024-03-08T06:26:40;22.20;;;7.45;;
73980;SDS011;62348;51.412;5.436;2024-03-08T06:29:06;16.08;;;6.75;;
73980;SDS011;62348;51.412;5.436;2024-03-08T06:31:32;12.88;;;6.90;;
73980;SDS011;62348;51.412;5.436;2024-03-08T06:33:57;11.60;;;7.20;;
73980;SDS011;62348;51.412;5.436;2024-03-08T06:36:23;13.93;;;7.50;;
73980;SDS011;62348;51.412;5.436;2024-03-08T06:38:49;14.40;;;6.93;;
73980;SDS011;62348;51.412;5.436;2024-03-08T06:41:14;13.48;;;5.38;;
73980;SDS011;62348;51.412;5.436;2024-03-08T06:43:43;11.48;;;5.80;;
73980;SDS011;62348;51.412;5.436;2024-03-08T06:46:11;18.05;;;7.00;;
73980;SDS011;62348;51.412;5.436;2024-03-08T06:48:39;16.17;;;6.05;;
73980;SDS011;62348;51.412;5.436;2024-03-08T06:51:05;16.65;;;6.82;;
73980;SDS011;62348;51.412;5.436;2024-03-08T06:53:31;12.32;;;7.45;;
73980;SDS011;62348;51.412;5.436;2024-03-08T06:55:57;9.05;;;6.93;;
73980;SDS011;62348;51.412;5.436;2024-03-08T06:58:23;14.38;;;6.78;;
73980;SDS011;62348;51.412;5.436;2024-03-08T07:00:48;13.50;;;6.30;;
73980;SDS011;62348;51.412;5.436;2024-03-08T07:03:17;12.23;;;6.55;;
73980;SDS011;62348;51.412;5.436;2024-03-08T07:05:42;11.50;;;6.65;;
73980;SDS011;62348;51.412;5.436;2024-03-08T07:08:08;14.43;;;6.93;;
73980;SDS011;62348;51.412;5.436;2024-03-08T07:10:33;12.10;;;6.53;;
73980;SDS011;62348;51.412;5.436;2024-03-08T07:13:00;11.93;;;6.25;;
73980;SDS011;62348;51.412;5.436;2024-03-08T07:15:27;13.45;;;7.65;;
73980;SDS011;62348;51.412;5.436;2024-03-08T07:17:53;23.67;;;7.85;;
73980;SDS011;62348;51.412;5.436;2024-03-08T07:20:18;12.93;;;7.35;;
73980;SDS011;62348;51.412;5.436;2024-03-08T07:22:44;14.50;;;6.40;;
73980;SDS011;62348;51.412;5.436;2024-03-08T07:25:15;10.40;;;6.05;;
73980;SDS011;62348;51.412;5.436;2024-03-08T07:27:48;18.20;;;7.18;;
73980;SDS011;62348;51.412;5.436;2024-03-08T07:30:15;12.10;;;7.47;;
73980;SDS011;62348;51.412;5.436;2024-03-08T07:32:59;17.55;;;8.02;;
73980;SDS011;62348;51.412;5.436;2024-03-08T07:35:24;13.52;;;5.90;;
73980;SDS011;62348;51.412;5.436;2024-03-08T07:37:51;17.27;;;9.32;;
73980;SDS011;62348;51.412;5.436;2024-03-08T07:40:18;10.45;;;6.43;;
73980;SDS011;62348;51.412;5.436;2024-03-08T07:42:43;11.65;;;6.07;;
73980;SDS011;62348;51.412;5.436;2024-03-08T07:45:09;16.15;;;8.18;;
73980;SDS011;62348;51.412;5.436;2024-03-08T07:47:34;11.48;;;6.97;;
73980;SDS011;62348;51.412;5.436;2024-03-08T07:50:01;14.80;;;7.30;;
73980;SDS011;62348;51.412;5.436;2024-03-08T07:52:27;12.35;;;6.25;;
73980;SDS011;62348;51.412;5.436;2024-03-08T07:54:52;11.55;;;7.10;;
73980;SDS011;62348;51.412;5.436;2024-03-08T07:57:18;16.40;;;6.82;;
73980;SDS011;62348;51.412;5.436;2024-03-08T07:59:44;12.20;;;6.18;;
73980;SDS011;62348;51.412;5.436;2024-03-08T08:02:09;10.68;;;6.32;;
73980;SDS011;62348;51.412;5.436;2024-03-08T08:04:35;7.75;;;5.65;;
73980;SDS011;62348;51.412;5.436;2024-03-08T08:07:01;12.63;;;5.78;;
73980;SDS011;62348;51.412;5.436;2024-03-08T08:09:26;12.40;;;6.43;;
73980;SDS011;62348;51.412;5.436;2024-03-08T08:11:59;10.55;;;6.05;;
73980;SDS011;62348;51.412;5.436;2024-03-08T08:14:27;17.08;;;8.25;;
73980;SDS011;62348;51.412;5.436;2024-03-08T08:16:54;11.63;;;6.40;;
73980;SDS011;62348;51.412;5.436;2024-03-08T08:19:20;13.82;;;8.60;;
73980;SDS011;62348;51.412;5.436;2024-03-08T08:21:46;9.13;;;6.70;;
73980;SDS011;62348;51.412;5.436;2024-03-08T08:24:12;11.07;;;7.10;;
73980;SDS011;62348;51.412;5.436;2024-03-08T08:26:37;14.95;;;8.50;;
73980;SDS011;62348;51.412;5.436;2024-03-08T08:29:02;10.02;;;6.60;;
73980;SDS011;62348;51.412;5.436;2024-03-08T08:31:28;17.08;;;9.35;;
73980;SDS011;62348;51.412;5.436;2024-03-08T08:33:54;9.45;;;7.00;;
73980;SDS011;62348;51.412;5.436;2024-03-08T08:36:23;14.70;;;7.85;;
73980;SDS011;62348;51.412;5.436;2024-03-08T08:38:49;12.52;;;6.70;;
73980;SDS011;62348;51.412;5.436;2024-03-08T08:41:15;12.88;;;7.30;;
73980;SDS011;62348;51.412;5.436;2024-03-08T08:43:42;13.38;;;9.27;;
73980;SDS011;62348;51.412;5.436;2024-03-08T08:46:09;19.58;;;7.82;;
73980;SDS011;62348;51.412;5.436;2024-03-08T08:48:41;13.52;;;8.50;;
73980;SDS011;62348;51.412;5.436;2024-03-08T08:51:06;12.23;;;7.25;;
73980;SDS011;62348;51.412;5.436;2024-03-08T08:53:37;14.25;;;7.72;;
73980;SDS011;62348;51.412;5.436;2024-03-08T08:56:08;14.63;;;6.60;;
73980;SDS011;62348;51.412;5.436;2024-03-08T08:58:34;15.23;;;8.57;;
73980;SDS011;62348;51.412;5.436;2024-03-08T09:00:59;16.05;;;8.45;;
73980;SDS011;62348;51.412;5.436;2024-03-08T09:03:26;14.23;;;7.47;;
73980;SDS011;62348;51.412;5.436;2024-03-08T09:05:53;14.48;;;7.25;;
73980;SDS011;62348;51.412;5.436;2024-03-08T09:08:18;10.68;;;7.75;;
73980;SDS011;62348;51.412;5.436;2024-03-08T09:10:44;15.88;;;8.63;;
73980;SDS011;62348;51.412;5.436;2024-03-08T09:13:10;13.82;;;8.00;;
73980;SDS011;62348;51.412;5.436;2024-03-08T09:15:36;11.70;;;8.02;;
73980;SDS011;62348;51.412;5.436;2024-03-08T09:18:05;11.38;;;7.20;;
73980;SDS011;62348;51.412;5.436;2024-03-08T09:20:31;13.10;;;7.25;;
73980;SDS011;62348;51.412;5.436;2024-03-08T09:22:57;14.43;;;8.35;;
73980;SDS011;62348;51.412;5.436;2024-03-08T09:25:22;13.63;;;6.70;;
73980;SDS011;62348;51.412;5.436;2024-03-08T09:27:48;10.48;;;8.00;;
73980;SDS011;62348;51.412;5.436;2024-03-08T09:30:14;13.80;;;7.63;;
73980;SDS011;62348;51.412;5.436;2024-03-08T09:32:40;12.90;;;7.65;;
73980;SDS011;62348;51.412;5.436;2024-03-08T09:35:06;13.48;;;7.35;;
73980;SDS011;62348;51.412;5.436;2024-03-08T09:37:32;11.73;;;6.22;;
73980;SDS011;62348;51.412;5.436;2024-03-08T09:39:59;11.98;;;7.32;;
73980;SDS011;62348;51.412;5.436;2024-03-08T09:42:25;12.60;;;6.15;;
73980;SDS011;62348;51.412;5.436;2024-03-08T09:44:51;9.75;;;6.78;;
73980;SDS011;62348;51.412;5.436;2024-03-08T09:47:17;12.27;;;6.93;;
73980;SDS011;62348;51.412;5.436;2024-03-08T09:49:47;13.82;;;8.93;;
73980;SDS011;62348;51.412;5.436;2024-03-08T09:52:13;14.02;;;8.68;;
73980;SDS011;62348;51.412;5.436;2024-03-08T09:54:40;13.65;;;7.18;;
73980;SDS011;62348;51.412;5.436;2024-03-08T09:57:09;11.38;;;7.05;;
73980;SDS011;62348;51.412;5.436;2024-03-08T09:59:35;13.68;;;6.07;;
73980;SDS011;62348;51.412;5.436;2024-03-08T10:02:01;14.23;;;7.18;;
73980;SDS011;62348;51.412;5.436;2024-03-08T10:04:28;12.13;;;5.90;;
73980;SDS011;62348;51.412;5.436;2024-03-08T10:06:57;12.00;;;6.47;;
73980;SDS011;62348;51.412;5.436;2024-03-08T10:09:24;13.07;;;7.25;;
73980;SDS011;62348;51.412;5.436;2024-03-08T10:12:01;12.45;;;7.53;;
73980;SDS011;62348;51.412;5.436;2024-03-08T10:14:28;10.32;;;7.00;;
73980;SDS011;62348;51.412;5.436;2024-03-08T10:16:53;11.93;;;7.60;;
73980;SDS011;62348;51.412;5.436;2024-03-08T10:19:19;14.68;;;6.35;;
73980;SDS011;62348;51.412;5.436;2024-03-08T10:21:51;15.55;;;6.70;;
73980;SDS011;62348;51.412;5.436;2024-03-08T10:24:22;9.18;;;6.60;;
73980;SDS011;62348;51.412;5.436;2024-03-08T10:26:51;11.38;;;7.97;;
73980;SDS011;62348;51.412;5.436;2024-03-08T10:29:29;15.27;;;7.53;;
73980;SDS011;62348;51.412;5.436;2024-03-08T10:31:58;12.15;;;7.05;;
73980;SDS011;62348;51.412;5.436;2024-03-08T10:34:24;9.30;;;6.50;;
73980;SDS011;62348;51.412;5.436;2024-03-08T10:36:50;13.55;;;7.78;;
73980;SDS011;62348;51.412;5.436;2024-03-08T10:39:21;11.70;;;7.15;;
73980;SDS011;62348;51.412;5.436;2024-03-08T10:41:52;14.30;;;7.20;;
73980;SDS011;62348;51.412;5.436;2024-03-08T10:49:37;8.57;;;4.95;;
73980;SDS011;62348;51.412;5.436;2024-03-08T10:52:04;9.82;;;5.20;;
73980;SDS011;62348;51.412;5.436;2024-03-08T10:54:33;14.27;;;5.78;;
73980;SDS011;62348;51.412;5.436;2024-03-08T10:57:03;9.45;;;5.65;;
73980;SDS011;62348;51.412;5.436;2024-03-08T10:59:30;8.05;;;4.93;;
73980;SDS011;62348;51.412;5.436;2024-03-08T11:01:58;12.25;;;5.65;;
73980;SDS011;62348;51.412;5.436;2024-03-08T11:04:24;10.65;;;5.60;;
73980;SDS011;62348;51.412;5.436;2024-03-08T11:06:50;11.60;;;5.82;;
73980;SDS011;62348;51.412;5.436;2024-03-08T11:14:42;10.77;;;4.93;;
73980;SDS011;62348;51.412;5.436;2024-03-08T11:17:09;7.78;;;4.43;;
73980;SDS011;62348;51.412;5.436;2024-03-08T11:19:34;14.10;;;5.95;;
73980;SDS011;62348;51.412;5.436;2024-03-08T11:22:00;7.85;;;4.57;;
73980;SDS011;62348;51.412;5.436;2024-03-08T11:24:28;10.70;;;6.55;;
73980;SDS011;62348;51.412;5.436;2024-03-08T11:27:01;11.65;;;5.57;;
73980;SDS011;62348;51.412;5.436;2024-03-08T11:32:14;8.88;;;5.80;;
73980;SDS011;62348;51.412;5.436;2024-03-08T11:34:42;9.52;;;5.85;;
73980;SDS011;62348;51.412;5.436;2024-03-08T11:37:11;9.50;;;5.28;;
73980;SDS011;62348;51.412;5.436;2024-03-08T11:42:24;10.80;;;6.03;;
73980;SDS011;62348;51.412;5.436;2024-03-08T11:44:51;6.72;;;4.80;;
73980;SDS011;62348;51.412;5.436;2024-03-08T11:47:18;9.15;;;6.07;;
73980;SDS011;62348;51.412;5.436;2024-03-08T11:49:44;7.18;;;4.75;;
73980;SDS011;62348;51.412;5.436;2024-03-08T11:52:12;10.80;;;5.10;;
73980;SDS011;62348;51.412;5.436;2024-03-08T11:54:38;9.20;;;6.40;;
73980;SDS011;62348;51.412;5.436;2024-03-08T11:57:04;7.68;;;5.15;;
73980;SDS011;62348;51.412;5.436;2024-03-08T11:59:30;7.18;;;4.20;;
73980;SDS011;62348;51.412;5.436;2024-03-08T12:02:04;12.45;;;5.50;;
73980;SDS011;62348;51.412;5.436;2024-03-08T12:04:31;9.23;;;5.88;;
73980;SDS011;62348;51.412;5.436;2024-03-08T12:07:01;9.00;;;4.75;;
73980;SDS011;62348;51.412;5.436;2024-03-08T12:09:28;6.88;;;4.45;;
73980;SDS011;62348;51.412;5.436;2024-03-08T12:11:54;8.60;;;4.72;;
73980;SDS011;62348;51.412;5.436;2024-03-08T12:14:19;10.65;;;5.30;;
73980;SDS011;62348;51.412;5.436;2024-03-08T12:16:45;11.63;;;5.70;;
73980;SDS011;62348;51.412;5.436;2024-03-08T12:19:11;10.60;;;6.07;;
73980;SDS011;62348;51.412;5.436;2024-03-08T12:21:37;9.02;;;5.03;;
73980;SDS011;62348;51.412;5.436;2024-03-08T12:24:06;11.55;;;4.93;;
73980;SDS011;62348;51.412;5.436;2024-03-08T12:26:36;12.57;;;5.05;;
73980;SDS011;62348;51.412;5.436;2024-03-08T12:29:37;15.35;;;6.05;;
73980;SDS011;62348;51.412;5.436;2024-03-08T12:31:55;6.00;;;4.43;;
73980;SDS011;62348;51.412;5.436;2024-03-08T12:34:25;8.00;;;5.70;;
73980;SDS011;62348;51.412;5.436;2024-03-08T12:36:53;7.90;;;4.47;;
73980;SDS011;62348;51.412;5.436;2024-03-08T12:39:19;7.57;;;5.72;;
73980;SDS011;62348;51.412;5.436;2024-03-08T12:41:51;11.15;;;5.32;;
73980;SDS011;62348;51.412;5.436;2024-03-08T12:44:22;11.20;;;5.85;;
73980;SDS011;62348;51.412;5.436;2024-03-08T12:46:47;10.70;;;6.47;;
73980;SDS011;62348;51.412;5.436;2024-03-08T12:49:14;7.45;;;4.72;;
73980;SDS011;62348;51.412;5.436;2024-03-08T12:51:45;9.13;;;5.80;;
73980;SDS011;62348;51.412;5.436;2024-03-08T12:54:11;8.57;;;5.30;;
73980;SDS011;62348;51.412;5.436;2024-03-08T12:56:37;9.95;;;5.57;;
73980;SDS011;62348;51.412;5.436;2024-03-08T12:59:03;8.25;;;5.35;;
73980;SDS011;62348;51.412;5.436;2024-03-08T13:01:30;10.10;;;5.88;;
73980;SDS011;62348;51.412;5.436;2024-03-08T13:04:02;13.05;;;6.63;;
73980;SDS011;62348;51.412;5.436;2024-03-08T13:06:28;9.38;;;5.40;;
73980;SDS011;62348;51.412;5.436;2024-03-08T13:08:56;9.48;;;4.50;;
73980;SDS011;62348;51.412;5.436;2024-03-08T13:11:23;10.02;;;4.97;;
73980;SDS011;62348;51.412;5.436;2024-03-08T13:13:49;7.97;;;5.20;;
73980;SDS011;62348;51.412;5.436;2024-03-08T13:16:15;10.27;;;4.85;;
73980;SDS011;62348;51.412;5.436;2024-03-08T13:18:42;6.93;;;4.38;;
73980;SDS011;62348;51.412;5.436;2024-03-08T13:21:08;7.28;;;4.65;;
73980;SDS011;62348;51.412;5.436;2024-03-08T13:23:35;9.55;;;4.82;;
73980;SDS011;62348;51.412;5.436;2024-03-08T13:26:04;10.65;;;6.18;;
73980;SDS011;62348;51.412;5.436;2024-03-08T13:28:33;8.65;;;4.53;;
73980;SDS011;62348;51.412;5.436;2024-03-08T13:31:03;9.82;;;4.93;;
73980;SDS011;62348;51.412;5.436;2024-03-08T13:33:32;9.38;;;4.40;;
73980;SDS011;62348;51.412;5.436;2024-03-08T13:36:05;11.85;;;4.70;;
73980;SDS011;62348;51.412;5.436;2024-03-08T13:38:34;8.18;;;5.43;;
73980;SDS011;62348;51.412;5.436;2024-03-08T13:41:01;12.27;;;5.07;;
73980;SDS011;62348;51.412;5.436;2024-03-08T13:43:28;10.43;;;5.70;;
73980;SDS011;62348;51.412;5.436;2024-03-08T13:45:53;9.75;;;4.35;;
73980;SDS011;62348;51.412;5.436;2024-03-08T13:48:20;7.85;;;3.83;;
73980;SDS011;62348;51.412;5.436;2024-03-08T13:50:47;8.63;;;4.65;;
73980;SDS011;62348;51.412;5.436;2024-03-08T13:53:13;5.03;;;3.60;;
73980;SDS011;62348;51.412;5.436;2024-03-08T13:55:38;7.18;;;3.88;;
73980;SDS011;62348;51.412;5.436;2024-03-08T13:58:06;5.97;;;4.07;;
73980;SDS011;62348;51.412;5.436;2024-03-08T14:00:34;6.13;;;4.00;;
73980;SDS011;62348;51.412;5.436;2024-03-08T14:03:01;6.53;;;4.45;;
73980;SDS011;62348;51.412;5.436;2024-03-08T14:05:30;5.25;;;3.72;;
73980;SDS011;62348;51.412;5.436;2024-03-08T14:08:00;6.45;;;3.78;;
73980;SDS011;62348;51.412;5.436;2024-03-08T14:10:28;11.55;;;4.72;;
73980;SDS011;62348;51.412;5.436;2024-03-08T14:12:56;7.18;;;3.33;;
73980;SDS011;62348;51.412;5.436;2024-03-08T14:15:22;9.23;;;6.13;;
73980;SDS011;62348;51.412;5.436;2024-03-08T14:17:54;7.80;;;4.18;;
73980;SDS011;62348;51.412;5.436;2024-03-08T14:20:21;8.88;;;5.70;;
73980;SDS011;62348;51.412;5.436;2024-03-08T14:22:53;8.23;;;4.43;;
73980;SDS011;62348;51.412;5.436;2024-03-08T14:25:22;7.53;;;4.20;;
73980;SDS011;62348;51.412;5.436;2024-03-08T14:27:51;8.95;;;4.57;;
73980;SDS011;62348;51.412;5.436;2024-03-08T14:30:28;6.82;;;4.10;;
73980;SDS011;62348;51.412;5.436;2024-03-08T14:32:58;8.95;;;4.28;;
73980;SDS011;62348;51.412;5.436;2024-03-08T14:35:25;7.35;;;4.45;;
73980;SDS011;62348;51.412;5.436;2024-03-08T14:37:50;8.30;;;4.65;;
73980;SDS011;62348;51.412;5.436;2024-03-08T14:40:17;6.60;;;3.78;;
73980;SDS011;62348;51.412;5.436;2024-03-08T14:42:47;9.45;;;4.13;;
73980;SDS011;62348;51.412;5.436;2024-03-08T14:45:16;8.45;;;4.95;;
73980;SDS011;62348;51.412;5.436;2024-03-08T14:47:44;7.85;;;4.60;;
73980;SDS011;62348;51.412;5.436;2024-03-08T14:50:14;8.95;;;4.00;;
73980;SDS011;62348;51.412;5.436;2024-03-08T14:52:42;9.40;;;4.25;;